createdAt,value
2022-08-03T00:04:43.214Z,59.46
2022-08-03T00:10:03.841Z,57.17
2022-08-03T00:15:11.155Z,58.07
2022-08-03T00:20:36.202Z,57.25
2022-08-03T00:25:40.553Z,58.27
2022-08-03T00:30:42.643Z,59.92
2022-08-03T00:35:50.606Z,60.26
2022-08-03T00:40:53.197Z,59.25
2022-08-03T00:45:55.444Z,58.91
2022-08-03T00:51:16.159Z,59.88
2022-08-03T00:56:18.819Z,60.78
2022-08-03T01:01:39.451Z,60.18
2022-08-03T01:07:18.123Z,59.18
2022-08-03T01:12:38.443Z,61.39
2022-08-03T01:18:17.253Z,59.50
2022-08-03T01:24:20.154Z,59.13
2022-08-03T01:30:12.758Z,59.44
2022-08-03T01:35:23.157Z,59.40
2022-08-03T01:40:45.474Z,60.48
2022-08-03T01:45:48.862Z,60.51
2022-08-03T01:50:52.467Z,62.64
2022-08-03T01:55:58.973Z,62.13
2022-08-03T02:01:03.466Z,62.13
2022-08-03T02:07:01.100Z,62.66
2022-08-03T02:11:35.294Z,62.29
2022-08-03T02:16:37.663Z,62.49
2022-08-03T02:22:01.265Z,63.09
2022-08-03T02:27:13.002Z,61.54
2022-08-03T02:32:20.560Z,61.28
2022-08-03T02:37:27.172Z,62.13
2022-08-03T02:42:51.993Z,62.70
2022-08-03T02:48:16.274Z,60.61
2022-08-03T02:53:19.920Z,62.66
2022-08-03T02:58:24.862Z,62.55
2022-08-03T03:03:29.781Z,61.88
2022-08-03T03:08:37.512Z,62.49
2022-08-03T03:13:45.151Z,63.08
2022-08-03T03:19:06.233Z,63.33
2022-08-03T03:24:10.113Z,61.74
2022-08-03T03:29:13.207Z,62.50
2022-08-03T03:34:34.033Z,62.99
2022-08-03T03:39:36.281Z,64.30
2022-08-03T03:44:38.846Z,63.66
2022-08-03T03:49:41.921Z,63.95
2022-08-03T03:55:02.611Z,63.46
2022-08-03T04:00:05.700Z,62.97
2022-08-03T04:05:26.600Z,62.69
2022-08-03T04:10:31.774Z,64.67
2022-08-03T04:15:54.712Z,63.81
2022-08-03T04:20:59.641Z,64.33
2022-08-03T04:26:23.202Z,62.57
2022-08-03T04:31:45.611Z,62.51
2022-08-03T04:36:58.212Z,62.59
2022-08-03T04:42:22.712Z,64.16
2022-08-03T04:47:25.401Z,62.72
2022-08-03T04:52:46.265Z,62.70
2022-08-03T04:57:49.211Z,62.48
2022-08-03T05:03:24.040Z,62.93
2022-08-03T05:08:28.419Z,63.00
2022-08-03T05:13:30.661Z,62.86
2022-08-03T05:18:59.062Z,63.78
2022-08-03T05:24:19.625Z,60.43
2022-08-03T05:29:42.965Z,61.70
2022-08-03T05:36:01.458Z,59.72
2022-08-03T05:40:56.797Z,59.66
2022-08-03T05:46:11.400Z,58.07
2022-08-03T05:51:17.463Z,56.96
2022-08-03T05:56:38.055Z,56.88
2022-08-03T06:01:42.807Z,58.58
2022-08-03T06:06:47.197Z,58.00
2022-08-03T06:12:11.183Z,53.20
2022-08-03T06:17:16.316Z,49.95
2022-08-03T06:22:37.415Z,46.38
2022-08-03T06:27:52.655Z,45.89
2022-08-03T06:33:15.206Z,42.63
2022-08-03T06:38:36.175Z,40.34
2022-08-03T06:44:02.982Z,39.93
2022-08-03T06:49:21.481Z,40.82
2022-08-03T06:54:41.807Z,37.34
2022-08-03T07:00:10.409Z,35.92
2022-08-03T07:05:06.985Z,34.90
2022-08-03T07:10:27.416Z,32.89
2022-08-03T07:15:55.374Z,35.18
2022-08-03T07:21:01.172Z,32.48
2022-08-03T07:26:06.770Z,32.46
2022-08-03T07:31:27.697Z,31.77
2022-08-03T07:36:36.416Z,32.28
2022-08-03T07:41:57.116Z,30.35
2022-08-03T07:46:59.732Z,31.42
2022-08-03T07:52:05.622Z,32.57
2022-08-03T07:57:26.195Z,32.18
2022-08-03T08:02:28.227Z,30.54
2022-08-03T08:07:30.356Z,29.15
2022-08-03T08:12:32.839Z,29.78
2022-08-03T08:17:56.138Z,27.93
2022-08-03T08:23:42.336Z,27.18
2022-08-03T08:28:44.334Z,27.81
2022-08-03T08:34:03.552Z,25.49
2022-08-03T08:39:06.039Z,25.67
2022-08-03T08:44:09.135Z,25.23
2022-08-03T08:49:17.194Z,24.82
2022-08-03T08:54:40.414Z,25.74
2022-08-03T08:59:47.995Z,24.84
2022-08-03T09:04:52.073Z,23.78
2022-08-03T09:10:14.780Z,24.77
2022-08-03T09:15:27.801Z,24.01
2022-08-03T09:20:39.882Z,23.84
2022-08-03T09:25:43.034Z,25.17
2022-08-03T09:30:59.350Z,23.88
2022-08-03T09:36:01.454Z,23.68
2022-08-03T09:41:17.581Z,24.46
2022-08-03T09:46:57.241Z,26.78
2022-08-03T09:52:33.709Z,24.88
2022-08-03T09:57:39.695Z,26.05
2022-08-03T10:03:06.803Z,27.13
2022-08-03T10:08:27.987Z,26.88
2022-08-03T10:13:30.662Z,26.96
2022-08-03T10:18:32.915Z,26.72
2022-08-03T10:23:35.916Z,27.10
2022-08-03T10:28:59.941Z,25.52
2022-08-03T10:34:27.028Z,27.40
2022-08-03T10:39:30.756Z,28.31
2022-08-03T10:44:40.537Z,27.53
2022-08-03T10:49:43.928Z,26.54
2022-08-03T10:54:51.083Z,29.49
2022-08-03T10:59:56.310Z,27.62
2022-08-03T11:05:31.517Z,26.86
2022-08-03T11:10:58.414Z,26.51
2022-08-03T11:16:22.042Z,26.03
2022-08-03T11:21:49.273Z,26.10
2022-08-03T11:27:18.482Z,26.77
2022-08-03T11:32:39.315Z,26.35
2022-08-03T11:38:04.656Z,24.51
2022-08-03T11:43:30.702Z,23.93
2022-08-03T11:48:38.993Z,22.60
2022-08-03T11:53:42.057Z,23.93
2022-08-03T11:59:19.964Z,25.13
2022-08-03T12:04:57.215Z,25.02
2022-08-03T12:10:18.044Z,24.07
2022-08-03T12:15:29.441Z,24.19
2022-08-03T12:20:54.102Z,24.31
2022-08-03T12:26:16.955Z,24.41
2022-08-03T13:39:35.513Z,22.44
2022-08-03T13:45:16.036Z,19.94
2022-08-03T13:50:18.714Z,21.97
2022-08-03T13:55:20.855Z,21.33
2022-08-03T14:00:42.153Z,21.02
2022-08-03T14:05:44.530Z,24.44
2022-08-03T14:10:47.157Z,20.47
2022-08-03T14:15:50.967Z,22.69
2022-08-03T14:21:13.354Z,25.50
2022-08-03T14:26:16.285Z,27.65
2022-08-03T14:32:09.822Z,24.76
2022-08-03T14:37:00.597Z,29.20
2022-08-03T14:42:23.999Z,31.05
2022-08-03T14:47:26.144Z,33.03
2022-08-03T14:52:29.166Z,32.63
2022-08-03T14:57:31.278Z,27.56
2022-08-03T15:02:51.661Z,29.39
2022-08-03T15:08:12.452Z,29.35
2022-08-03T15:13:33.275Z,32.47
2022-08-03T15:18:35.462Z,29.51
2022-08-03T15:23:37.678Z,30.29
2022-08-03T15:28:58.255Z,26.76
2022-08-03T15:34:20.206Z,26.06
2022-08-03T15:39:22.512Z,27.61
2022-08-03T15:44:43.458Z,25.24
2022-08-03T15:50:09.460Z,25.40
2022-08-03T15:55:30.644Z,26.31
2022-08-03T16:00:33.421Z,25.54
2022-08-03T16:05:55.382Z,27.88
2022-08-03T16:11:03.763Z,26.11
2022-08-03T16:16:07.158Z,27.08
2022-08-03T16:21:33.739Z,27.98
2022-08-03T16:26:50.433Z,29.40
2022-08-03T16:32:07.367Z,28.83
2022-08-03T16:37:37.725Z,28.43
2022-08-03T16:42:43.878Z,28.16
2022-08-03T16:48:08.016Z,31.13
2022-08-03T16:53:16.468Z,32.73
2022-08-03T16:58:42.450Z,32.86
2022-08-03T17:04:02.221Z,32.37
2022-08-03T17:09:13.406Z,34.40
2022-08-03T17:14:22.370Z,30.34
2022-08-03T17:19:25.695Z,30.12
2022-08-03T17:24:33.378Z,30.22
2022-08-03T17:30:01.735Z,32.06
2022-08-03T17:35:06.794Z,30.78
2022-08-03T17:40:29.339Z,31.68
2022-08-03T17:45:52.313Z,32.18
2022-08-03T17:51:22.144Z,29.06
2022-08-03T17:56:45.047Z,29.89
2022-08-03T18:02:02.095Z,32.82
2022-08-03T18:07:12.414Z,37.67
2022-08-03T18:12:26.476Z,40.93
2022-08-03T18:17:55.750Z,44.16
2022-08-03T18:22:56.975Z,43.95
2022-08-03T18:27:59.995Z,46.91
2022-08-03T18:34:17.193Z,43.59
2022-08-03T18:38:45.739Z,45.69
2022-08-03T18:44:06.710Z,44.76
2022-08-03T18:49:29.440Z,43.12
2022-08-03T18:55:09.483Z,45.32
2022-08-03T19:00:42.413Z,45.47
2022-08-03T19:06:13.394Z,42.92
2022-08-03T19:12:13.874Z,44.08
2022-08-03T19:17:21.302Z,44.98
2022-08-03T19:22:25.645Z,46.98
2022-08-03T19:27:31.297Z,47.87
2022-08-03T19:32:54.157Z,47.66
2022-08-03T19:38:00.059Z,45.81
2022-08-03T19:43:53.275Z,46.41
2022-08-03T19:49:20.564Z,47.08
2022-08-03T19:54:29.928Z,43.63
2022-08-03T19:59:49.847Z,42.29
2022-08-03T20:05:00.014Z,42.83
2022-08-03T20:10:23.295Z,41.95
2022-08-03T20:15:31.586Z,42.49
2022-08-03T20:20:55.408Z,42.97
2022-08-03T20:26:18.574Z,44.61
2022-08-03T20:31:32.667Z,49.55
2022-08-03T20:36:38.414Z,48.28
2022-08-03T20:41:41.515Z,48.56
2022-08-03T20:47:04.497Z,47.65
2022-08-03T20:52:18.857Z,48.05
2022-08-03T20:57:22.114Z,47.64
2022-08-03T21:02:43.635Z,49.04
2022-08-03T21:08:07.189Z,47.47
2022-08-03T21:13:37.055Z,47.39
2022-08-03T21:18:50.614Z,50.64
2022-08-03T21:24:13.083Z,49.86
2022-08-03T21:29:53.288Z,48.29
2022-08-03T21:35:15.554Z,52.18
2022-08-03T21:40:17.895Z,50.73
2022-08-03T21:45:20.130Z,50.77
2022-08-03T21:50:42.462Z,51.26
2022-08-03T21:56:08.033Z,51.77
2022-08-03T22:01:10.341Z,52.10
2022-08-03T22:06:31.474Z,52.23
2022-08-03T22:11:52.762Z,52.20
2022-08-03T22:17:14.482Z,51.73
2022-08-03T22:22:57.281Z,51.18
2022-08-03T22:28:03.566Z,53.04
2022-08-03T22:33:28.234Z,52.39
2022-08-03T22:38:32.794Z,53.55
2022-08-03T22:43:54.883Z,53.31
2022-08-03T22:48:59.291Z,53.63
2022-08-03T22:54:05.543Z,53.55
2022-08-03T22:59:39.939Z,54.71
2022-08-03T23:04:33.473Z,54.00
2022-08-03T23:09:36.882Z,54.27
2022-08-03T23:14:40.595Z,54.89
2022-08-03T23:19:44.842Z,54.97
2022-08-03T23:24:47.675Z,56.10
2022-08-03T23:30:10.478Z,56.10
2022-08-03T23:35:13.921Z,55.94
2022-08-03T23:40:16.115Z,54.42
2022-08-03T23:45:20.175Z,56.12
2022-08-03T23:50:22.458Z,55.71
2022-08-03T23:55:58.300Z,57.69
